Time;durP1;ratioP1;P1;durP2;ratioP2;P2;SDS_P1;SDS_P2;PMS_P1;PMS_P2;Temp;Humidity;BMP_temperature;BMP_pressure;BME280_temperature;BME280_humidity;BME280_pressure;Samples;Min_cycle;Max_cycle;Signal;HPM_P1;HPM_P2
2022/07/27 00:00:32;;;;;;;;;4.00;2.00;;;;;21.83;38.49;101430.56;4999623;28;45216;-53
2022/07/27 00:02:58;;;;;;;;;2.25;2.25;;;;;21.82;38.82;101422.63;5007408;28;45283;-54
2022/07/27 00:05:23;;;;;;;;;6.25;3.25;;;;;21.78;38.24;101424.59;4999301;28;45517;-52
2022/07/27 00:07:49;;;;;;;;;3.00;1.00;;;;;21.75;38.87;101420.25;4999338;28;45337;-54
2022/07/27 00:10:15;;;;;;;;;2.25;2.25;;;;;21.75;38.79;101428.28;4999682;28;45308;-55
2022/07/27 00:12:40;;;;;;;;;3.00;3.00;;;;;21.74;38.81;101428.38;4999816;28;45627;-54
2022/07/27 00:15:06;;;;;;;;;2.00;2.00;;;;;21.70;39.00;101419.63;5014702;28;45309;-55
2022/07/27 00:17:32;;;;;;;;;4.00;3.00;;;;;21.69;38.86;101427.75;4999222;28;46230;-55
2022/07/27 00:19:57;;;;;;;;;2.75;2.00;;;;;21.66;38.88;101418.06;4999512;28;45305;-55
2022/07/27 00:22:23;;;;;;;;;5.50;3.50;;;;;21.61;39.11;101414.75;4998057;28;45642;-55
2022/07/27 00:24:49;;;;;;;;;4.00;4.00;;;;;21.62;39.29;101415.59;4999319;28;45405;-54
2022/07/27 00:27:14;;;;;;;;;4.00;4.00;;;;;21.60;38.94;101418.38;4999416;28;46446;-56
2022/07/27 00:29:40;;;;;;;;;5.00;5.00;;;;;21.56;39.39;101414.97;5000983;28;45336;-56
2022/07/27 00:32:06;;;;;;;;;3.00;3.00;;;;;21.58;38.94;101415.78;5002743;28;45388;-56
2022/07/27 00:34:32;;;;;;;;;5.25;4.00;;;;;21.58;39.05;101417.56;5002607;28;45295;-56
2022/07/27 00:36:57;;;;;;;;;4.25;4.00;;;;;21.55;39.57;101412.34;5002054;28;46614;-55
2022/07/27 00:39:22;;;;;;;;;4.00;3.00;;;;;21.54;39.27;101413.28;5001468;28;45444;-56
2022/07/27 00:41:48;;;;;;;;;6.00;4.75;;;;;21.52;39.36;101413.38;5002634;28;45238;-55
2022/07/27 00:44:23;;;;;;;;;4.25;4.25;;;;;21.50;39.84;101420.59;5001247;28;46156;-55
2022/07/27 00:46:48;;;;;;;;;4.25;4.25;;;;;21.47;39.95;101418.09;5002514;28;46166;-55
2022/07/27 00:49:13;;;;;;;;;5.25;4.25;;;;;21.43;39.65;101413.81;5002231;28;45175;-55
2022/07/27 00:51:39;;;;;;;;;4.00;3.50;;;;;21.43;39.41;101412.03;5020756;28;45237;-55
2022/07/27 00:54:05;;;;;;;;;4.00;3.25;;;;;21.42;40.05;101410.28;5005484;28;45605;-55
2022/07/27 00:56:30;;;;;;;;;4.75;3.50;;;;;21.41;40.06;101413.03;5002234;28;46177;-56
2022/07/27 00:58:57;;;;;;;;;4.00;4.00;;;;;21.37;39.68;101417.66;5002033;28;45321;-56
2022/07/27 01:01:22;;;;;;;;;3.00;3.00;;;;;21.35;39.86;101414.19;5006301;28;45292;-55
2022/07/27 01:03:47;;;;;;;;;5.00;5.00;;;;;21.30;40.12;101412.69;5005304;28;45361;-53
2022/07/27 01:06:16;;;;;;;;;4.00;4.00;;;;;21.29;39.94;101419.84;5002072;28;45938;-55
2022/07/27 01:08:42;;;;;;;;;4.00;4.00;;;;;21.26;39.84;101415.50;5000620;28;45801;-56
2022/07/27 01:11:08;;;;;;;;;1.00;1.00;;;;;21.24;40.53;101412.06;5002126;28;45246;-55
2022/07/27 01:13:34;;;;;;;;;4.25;4.00;;;;;21.21;39.98;101397.97;5002058;28;45588;-56
2022/07/27 01:16:02;;;;;;;;;4.00;4.00;;;;;21.21;40.57;101396.16;5001877;28;45189;-56
2022/07/27 01:18:32;;;;;;;;;6.50;5.00;;;;;21.22;40.16;101402.34;5001872;28;45396;-55
2022/07/27 01:20:59;;;;;;;;;7.75;4.00;;;;;21.19;40.07;101398.03;5002027;28;45338;-56
2022/07/27 01:23:25;;;;;;;;;4.00;4.00;;;;;21.16;40.52;101398.19;5001542;28;45495;-55
2022/07/27 01:25:51;;;;;;;;;5.00;4.00;;;;;21.18;40.74;101403.47;5001899;28;45337;-56
2022/07/27 01:28:16;;;;;;;;;5.75;4.00;;;;;21.16;40.20;101398.19;5000459;28;45448;-54
2022/07/27 01:30:42;;;;;;;;;4.00;4.00;;;;;21.15;40.23;101395.59;5001902;28;45417;-56
2022/07/27 01:33:08;;;;;;;;;6.50;4.00;;;;;21.13;40.64;101392.13;5001745;28;45316;-55
2022/07/27 01:35:35;;;;;;;;;4.00;4.00;;;;;21.13;40.74;101393.00;5000617;28;45372;-54
2022/07/27 01:38:02;;;;;;;;;2.25;1.50;;;;;21.11;41.04;101385.03;5001281;28;45322;-55
2022/07/27 01:40:27;;;;;;;;;5.00;4.00;;;;;21.09;40.60;101386.94;5001114;28;45404;-54
2022/07/27 01:42:53;;;;;;;;;3.25;3.00;;;;;21.06;41.03;101387.06;5001532;28;45231;-55
2022/07/27 01:45:18;;;;;;;;;4.75;4.75;;;;;21.03;40.89;101379.22;5001691;28;45329;-55
2022/07/27 01:47:44;;;;;;;;;4.00;4.00;;;;;21.03;41.21;101389.91;5001406;28;45239;-55
2022/07/27 01:50:10;;;;;;;;;5.25;3.75;;;;;21.01;40.79;101394.44;5007957;28;45301;-53
2022/07/27 01:52:35;;;;;;;;;8.50;6.00;;;;;20.92;40.88;101387.75;5016370;28;45435;-53
2022/07/27 01:55:01;;;;;;;;;4.50;4.50;;;;;20.96;41.13;101392.94;5001305;28;45341;-53
2022/07/27 01:57:26;;;;;;;;;6.50;3.75;;;;;20.91;41.19;101388.66;5001162;28;45250;-53
2022/07/27 01:59:52;;;;;;;;;6.75;5.75;;;;;20.90;41.38;101388.75;5001731;28;45296;-53
2022/07/27 02:02:17;;;;;;;;;4.25;3.50;;;;;20.87;41.42;101389.75;5008387;28;45498;-53
2022/07/27 02:04:43;;;;;;;;;5.75;5.00;;;;;20.82;41.26;101382.88;5001181;28;45365;-52
2022/07/27 02:07:08;;;;;;;;;4.50;4.50;;;;;20.79;41.63;101389.25;5001068;28;45431;-52
2022/07/27 02:09:34;;;;;;;;;3.25;3.25;;;;;20.77;41.03;101385.81;5001470;28;45393;-53
2022/07/27 02:14:43;;;;;;;;;5.75;5.00;;;;;20.68;41.45;101388.84;5001137;28;45252;-52
2022/07/27 02:17:08;;;;;;;;;7.00;5.25;;;;;20.66;41.70;101388.06;5000861;28;45360;-53
2022/07/27 02:19:33;;;;;;;;;9.00;5.00;;;;;20.61;41.53;101383.78;5001307;28;45274;-52
2022/07/27 02:21:59;;;;;;;;;4.25;4.25;;;;;20.58;41.36;101375.94;5000801;28;45670;-52
2022/07/27 02:24:24;;;;;;;;;8.00;2.75;;;;;20.54;41.72;101373.47;5001059;28;45316;-53
2022/07/27 02:26:49;;;;;;;;;5.75;3.75;;;;;20.50;41.91;101374.56;5000958;28;45333;-53
2022/07/27 02:29:15;;;;;;;;;5.25;5.25;;;;;20.49;41.81;101381.72;5001435;28;45296;-52
2022/07/27 02:31:40;;;;;;;;;6.00;4.25;;;;;20.46;41.53;101380.06;5000876;28;45313;-52
2022/07/27 02:34:05;;;;;;;;;7.00;6.00;;;;;20.43;41.77;101376.66;5000831;28;45230;-53
2022/07/27 02:36:31;;;;;;;;;5.75;5.25;;;;;20.40;41.68;101383.00;5001026;28;45214;-53
2022/07/27 02:38:57;;;;;;;;;6.00;6.00;;;;;20.37;41.73;101376.94;5000798;28;45237;-53
2022/07/27 02:41:23;;;;;;;;;5.00;5.00;;;;;20.37;42.12;101385.78;5000650;28;45533;-52
2022/07/27 02:43:48;;;;;;;;;5.75;4.25;;;;;20.36;42.15;101383.19;5000575;28;46129;-52
2022/07/27 02:46:13;;;;;;;;;7.75;6.25;;;;;20.32;42.29;101379.78;5000609;28;45301;-52
2022/07/27 02:48:38;;;;;;;;;5.50;4.50;;;;;20.27;41.86;101374.66;5000841;28;45214;-50
2022/07/27 02:51:04;;;;;;;;;4.50;4.50;;;;;20.30;42.34;101387.00;5013329;28;45246;-53
2022/07/27 02:53:30;;;;;;;;;5.25;3.25;;;;;20.28;42.21;101378.22;5008024;28;45357;-52
2022/07/27 02:55:56;;;;;;;;;5.00;5.00;;;;;20.27;41.82;101381.81;5000477;28;45532;-54
2022/07/27 02:58:21;;;;;;;;;6.75;5.00;;;;;20.24;42.04;101380.16;5000719;28;45301;-53
2022/07/27 03:00:47;;;;;;;;;3.50;2.00;;;;;20.23;42.16;101373.06;5000183;28;45384;-52
2022/07/27 03:03:12;;;;;;;;;4.00;3.00;;;;;20.18;42.49;101371.56;5007874;28;46461;-53
2022/07/27 03:05:38;;;;;;;;;4.75;3.75;;;;;20.20;42.17;101381.22;5000413;28;45392;-53
2022/07/27 03:08:04;;;;;;;;;5.00;3.25;;;;;20.18;42.33;101376.88;4999890;28;45344;-53
2022/07/27 03:10:30;;;;;;;;;6.00;4.00;;;;;20.13;42.68;101375.28;4998996;28;45331;-51
2022/07/27 03:12:55;;;;;;;;;3.50;3.50;;;;;20.12;42.17;101375.34;5000283;28;46257;-55
2022/07/27 03:15:21;;;;;;;;;8.25;4.75;;;;;20.06;42.60;101373.84;5014966;28;45250;-55
2022/07/27 03:17:46;;;;;;;;;5.50;4.50;;;;;20.03;42.90;101384.63;5000381;28;45223;-52
2022/07/27 03:20:12;;;;;;;;;7.00;5.75;;;;;20.00;42.52;101378.56;5000087;28;45528;-52
2022/07/27 03:22:37;;;;;;;;;5.00;5.00;;;;;19.95;43.05;101376.09;4999993;28;46181;-55
2022/07/27 03:25:03;;;;;;;;;6.25;5.75;;;;;19.90;42.93;101365.63;5000044;28;45262;-52
2022/07/27 03:27:28;;;;;;;;;5.25;2.25;;;;;19.88;42.74;101370.16;4999067;28;45265;-55
2022/07/27 03:29:54;;;;;;;;;4.75;4.50;;;;;19.86;43.02;101373.81;5015454;28;45263;-54
2022/07/27 03:32:19;;;;;;;;;3.75;3.75;;;;;19.84;43.26;101378.38;4999857;28;45974;-55
2022/07/27 03:34:45;;;;;;;;;3.00;3.00;;;;;19.78;43.34;101372.31;5000092;28;45286;-54
2022/07/27 03:37:10;;;;;;;;;4.50;4.50;;;;;19.78;43.39;101374.13;4999855;28;45528;-53
2022/07/27 03:39:35;;;;;;;;;4.00;3.50;;;;;19.74;43.41;101375.19;5000029;28;45317;-51
2022/07/27 03:42:01;;;;;;;;;6.25;4.75;;;;;19.70;43.27;101369.13;4998345;28;45386;-51
2022/07/27 03:44:26;;;;;;;;;6.00;3.25;;;;;19.69;43.09;101372.72;4999993;28;45330;-51
2022/07/27 03:46:52;;;;;;;;;6.75;3.75;;;;;19.68;43.50;101373.63;4999937;28;45285;-53
2022/07/27 03:49:17;;;;;;;;;4.00;4.00;;;;;19.61;42.82;101366.84;4999809;28;45262;-54
2022/07/27 03:51:42;;;;;;;;;3.00;3.00;;;;;19.63;42.85;101375.63;5018346;28;46153;-53
2022/07/27 03:54:08;;;;;;;;;6.00;4.50;;;;;19.61;42.89;101366.84;5002133;28;45316;-50
2022/07/27 03:56:33;;;;;;;;;4.75;3.50;;;;;19.58;43.18;101367.81;4999992;28;45435;-53
2022/07/27 03:58:59;;;;;;;;;4.50;3.25;;;;;19.53;43.03;101369.81;4999594;28;45276;-53
2022/07/27 04:01:25;;;;;;;;;3.25;3.25;;;;;19.51;43.32;101365.47;5004292;28;45396;-51
2022/07/27 04:03:50;;;;;;;;;8.25;5.00;;;;;19.48;43.03;101367.38;5002312;28;45418;-53
2022/07/27 04:06:16;;;;;;;;;4.50;4.50;;;;;19.47;43.00;101370.06;5003519;28;45384;-54
2022/07/27 04:08:41;;;;;;;;;4.25;4.25;;;;;19.43;43.15;101374.69;5002802;28;45170;-48
2022/07/27 04:11:06;;;;;;;;;4.50;3.00;;;;;19.44;43.50;101375.53;5003097;28;45216;-52
2022/07/27 04:13:31;;;;;;;;;6.25;4.50;;;;;19.42;43.46;101375.63;5003034;28;45237;-52
2022/07/27 04:15:57;;;;;;;;;5.25;4.00;;;;;19.41;43.41;101381.88;5001796;28;45243;-52
2022/07/27 04:18:23;;;;;;;;;4.25;4.25;;;;;19.39;43.33;101367.72;5001621;28;45419;-53
2022/07/27 04:20:48;;;;;;;;;3.75;3.00;;;;;19.37;43.33;101369.63;5002815;28;45291;-53
2022/07/27 04:23:13;;;;;;;;;2.25;2.25;;;;;19.35;43.52;101370.59;5002723;28;45255;-51
2022/07/27 04:25:39;;;;;;;;;6.25;3.75;;;;;19.33;43.51;101375.97;5018337;28;45174;-53
2022/07/27 04:28:04;;;;;;;;;2.25;2.25;;;;;19.29;43.43;101374.38;5002904;28;45276;-51
2022/07/27 04:30:30;;;;;;;;;4.75;3.25;;;;;19.25;43.45;101368.28;5002666;28;46028;-53
2022/07/27 04:32:55;;;;;;;;;7.75;5.00;;;;;19.27;43.63;101374.44;5003002;28;45281;-52
2022/07/27 04:35:21;;;;;;;;;3.00;3.00;;;;;19.25;43.37;101373.63;5002927;28;45415;-52
2022/07/27 04:37:46;;;;;;;;;2.50;2.50;;;;;19.24;43.86;101371.03;5002333;28;45354;-53
2022/07/27 04:40:12;;;;;;;;;4.00;3.50;;;;;19.21;43.42;101374.69;5002548;28;46225;-53
2022/07/27 04:42:37;;;;;;;;;6.50;3.25;;;;;19.19;43.41;101373.03;5002441;28;45362;-53
2022/07/27 04:45:03;;;;;;;;;4.00;2.75;;;;;19.19;43.78;101378.34;5002808;28;45236;-52
2022/07/27 04:47:28;;;;;;;;;3.25;3.25;;;;;19.17;43.82;101373.94;5002541;28;45269;-53
2022/07/27 04:49:54;;;;;;;;;3.00;3.00;;;;;19.16;43.18;101377.53;5005106;28;46958;-52
2022/07/27 04:52:19;;;;;;;;;4.75;3.25;;;;;19.15;43.87;101373.13;5036396;28;45409;-52
2022/07/27 04:54:45;;;;;;;;;4.00;3.00;;;;;19.13;43.79;101375.00;5022469;28;45392;-53
2022/07/27 04:57:10;;;;;;;;;3.25;2.75;;;;;19.10;43.50;101367.13;5022334;28;45226;-52
2022/07/27 04:59:36;;;;;;;;;3.00;3.00;;;;;19.13;43.44;101376.78;5022168;28;46175;-51
2022/07/27 05:02:01;;;;;;;;;4.50;3.00;;;;;19.10;43.45;101375.09;5020131;28;45506;-53
2022/07/27 05:04:27;;;;;;;;;7.00;4.00;;;;;19.08;43.66;101374.31;5002210;28;45164;-53
2022/07/27 05:06:52;;;;;;;;;5.75;3.25;;;;;19.06;43.29;101375.31;5001806;28;45316;-53
2022/07/27 05:09:17;;;;;;;;;4.00;3.25;;;;;19.08;43.40;101378.75;5001989;28;45263;-52
2022/07/27 05:11:42;;;;;;;;;2.00;2.00;;;;;19.07;43.66;101374.34;5001635;28;46166;-52
2022/07/27 05:14:08;;;;;;;;;3.00;3.00;;;;;19.07;43.73;101375.25;5002074;28;45274;-52
2022/07/27 05:16:33;;;;;;;;;2.00;2.00;;;;;19.08;43.73;101378.75;5000265;28;45459;-50
2022/07/27 05:18:58;;;;;;;;;4.00;4.00;;;;;19.06;43.89;101376.16;5001521;28;46082;-54
2022/07/27 05:21:24;;;;;;;;;2.75;2.75;;;;;19.05;43.79;101369.09;5001568;28;45237;-52
2022/07/27 05:23:49;;;;;;;;;3.50;3.25;;;;;19.03;43.46;101384.28;5001544;28;45428;-50
2022/07/27 05:26:15;;;;;;;;;3.00;3.00;;;;;19.07;43.53;101387.69;5001262;28;45714;-52
2022/07/27 05:28:40;;;;;;;;;2.00;2.00;;;;;19.06;43.73;101386.81;5001464;28;47390;-51
2022/07/27 05:31:05;;;;;;;;;3.75;3.25;;;;;19.06;43.57;101402.81;5001043;28;45341;-53
2022/07/27 05:33:31;;;;;;;;;5.00;5.00;;;;;19.06;43.81;101400.13;5016724;28;45247;-53
2022/07/27 05:35:57;;;;;;;;;2.25;2.25;;;;;19.06;43.55;101389.50;5001337;28;45404;-53
2022/07/27 05:38:22;;;;;;;;;6.75;4.75;;;;;19.06;43.80;101392.16;4999687;28;46472;-51
2022/07/27 05:40:47;;;;;;;;;4.00;4.00;;;;;19.05;43.54;101393.06;5001186;28;45328;-53
2022/07/27 05:43:13;;;;;;;;;6.75;6.25;;;;;19.05;43.75;101398.41;5001361;28;45295;-53
2022/07/27 05:45:38;;;;;;;;;8.00;7.50;;;;;19.05;43.51;101392.22;5001244;28;45372;-53
2022/07/27 05:48:04;;;;;;;;;4.25;3.00;;;;;19.07;43.27;101396.56;5001168;28;45277;-53
2022/07/27 05:50:29;;;;;;;;;3.00;3.00;;;;;19.06;43.83;101402.81;5009755;28;45243;-53
2022/07/27 05:52:57;;;;;;;;;3.50;3.25;;;;;19.07;43.55;101408.97;5021014;28;45385;-53
2022/07/27 05:55:23;;;;;;;;;3.50;2.50;;;;;19.08;43.57;101394.75;5021036;28;45423;-54
2022/07/27 05:57:48;;;;;;;;;5.00;4.00;;;;;19.08;43.71;101400.97;5020821;28;45252;-53
2022/07/27 06:00:14;;;;;;;;;3.75;2.50;;;;;19.09;43.80;101396.47;5020766;28;45214;-53
2022/07/27 06:02:40;;;;;;;;;5.00;5.00;;;;;19.08;43.84;101402.72;5028775;28;45224;-54
2022/07/27 06:05:06;;;;;;;;;4.50;3.00;;;;;19.10;43.67;101406.22;5000941;28;45493;-52
2022/07/27 06:10:15;;;;;;;;;4.00;3.50;;;;;19.10;43.54;101408.88;5000911;28;45306;-53
2022/07/27 06:12:43;;;;;;;;;4.50;3.75;;;;;19.10;43.41;101408.88;5000865;28;45479;-51
2022/07/27 06:15:10;;;;;;;;;5.00;4.25;;;;;19.10;43.64;101416.88;5000987;28;45455;-54
2022/07/27 06:17:35;;;;;;;;;2.75;2.00;;;;;19.10;43.54;101420.38;5000515;28;46516;-52
2022/07/27 06:20:03;;;;;;;;;3.00;3.00;;;;;19.10;44.04;101417.72;5015812;28;45235;-53
2022/07/27 06:22:28;;;;;;;;;3.75;3.00;;;;;19.11;43.90;101413.28;5000659;28;45298;-53
2022/07/27 06:24:54;;;;;;;;;4.75;3.50;;;;;19.12;43.83;101417.69;5000576;28;45237;-54
2022/07/27 06:27:19;;;;;;;;;4.50;3.25;;;;;19.12;43.85;101415.88;5000233;28;45241;-52
2022/07/27 06:29:44;;;;;;;;;6.25;3.00;;;;;19.14;43.50;101418.47;5000337;28;45225;-53
2022/07/27 06:32:10;;;;;;;;;2.75;2.75;;;;;19.14;43.59;101419.38;5000626;28;45218;-52
2022/07/27 06:34:35;;;;;;;;;6.00;3.00;;;;;19.16;43.54;101417.47;5000334;28;45542;-52
2022/07/27 06:37:00;;;;;;;;;4.50;3.25;;;;;19.20;43.85;101417.38;5000374;28;45297;-53
2022/07/27 06:39:26;;;;;;;;;5.25;4.25;;;;;19.22;43.79;101415.50;4999444;28;45325;-54
2022/07/27 06:41:51;;;;;;;;;4.00;4.00;;;;;19.23;43.87;101410.13;5000864;28;45920;-54
2022/07/27 06:44:17;;;;;;;;;4.75;4.00;;;;;19.26;43.69;101417.16;5000600;28;45293;-54
2022/07/27 06:46:42;;;;;;;;;2.75;2.75;;;;;19.29;43.69;101415.19;5000443;28;45381;-53
2022/07/27 06:49:08;;;;;;;;;4.00;3.00;;;;;19.30;43.59;101416.94;5000675;28;45399;-54
2022/07/27 06:51:33;;;;;;;;;6.25;4.00;;;;;19.33;43.72;101415.94;5018298;28;45392;-54
2022/07/27 06:53:58;;;;;;;;;5.00;4.00;;;;;19.34;43.67;101417.69;5004345;28;45307;-54
2022/07/27 06:56:24;;;;;;;;;5.00;5.00;;;;;19.37;43.92;101425.56;5000516;28;47146;-53
2022/07/27 06:58:50;;;;;;;;;4.00;3.25;;;;;19.40;43.82;101425.44;5000439;28;45461;-54
2022/07/27 07:01:16;;;;;;;;;3.00;3.00;;;;;19.41;43.87;101421.84;5002495;28;45447;-52
2022/07/27 07:03:42;;;;;;;;;3.50;3.50;;;;;19.44;43.54;101429.69;5004805;28;45404;-51
2022/07/27 07:06:08;;;;;;;;;5.00;4.50;;;;;19.47;43.73;101426.94;5000350;28;46118;-54
2022/07/27 07:08:33;;;;;;;;;5.50;5.50;;;;;19.51;43.58;101430.34;5000101;28;45191;-53
2022/07/27 07:10:58;;;;;;;;;5.00;4.00;;;;;19.55;43.71;101431.94;5000407;28;45827;-55
2022/07/27 07:13:24;;;;;;;;;7.75;5.00;;;;;19.58;43.35;101433.63;5000262;28;45297;-53
2022/07/27 07:15:49;;;;;;;;;7.50;5.25;;;;;19.61;43.85;101433.50;5000145;28;46359;-55
2022/07/27 07:18:14;;;;;;;;;5.25;3.75;;;;;19.65;43.69;101435.09;5000104;28;45228;-52
2022/07/27 07:20:40;;;;;;;;;6.50;5.50;;;;;19.68;43.92;101442.97;5000371;28;45225;-55
2022/07/27 07:23:06;;;;;;;;;6.25;5.00;;;;;19.73;43.93;101440.09;4999872;28;45329;-53
2022/07/27 07:25:33;;;;;;;;;6.75;5.50;;;;;19.76;43.94;101439.97;5015297;28;46988;-54
2022/07/27 07:27:59;;;;;;;;;5.00;5.00;;;;;19.81;43.56;101441.53;5000122;28;45349;-55
2022/07/27 07:30:25;;;;;;;;;8.25;5.00;;;;;19.86;44.06;101438.72;5000127;28;45298;-53
2022/07/27 07:32:50;;;;;;;;;5.00;4.00;;;;;19.88;43.54;101433.31;4999867;28;45514;-54
2022/07/27 07:35:16;;;;;;;;;9.75;5.00;;;;;19.94;44.05;101438.38;5015137;28;47288;-54
2022/07/27 07:37:42;;;;;;;;;9.50;7.50;;;;;19.98;44.07;101437.31;5014820;28;45721;-54
2022/07/27 07:40:09;;;;;;;;;7.00;7.00;;;;;20.04;43.68;101445.06;4999207;28;45393;-53
2022/07/27 07:42:58;;;;;;;;;8.75;7.50;;;;;20.10;43.91;101449.25;4998206;28;45603;-54
2022/07/27 07:45:25;;;;;;;;;9.25;7.25;;;;;20.12;43.85;101434.94;4999756;28;46323;-55
2022/07/27 07:47:51;;;;;;;;;5.00;5.00;;;;;20.19;43.64;101440.84;4999755;28;45454;-53
2022/07/27 07:50:17;;;;;;;;;6.00;5.00;;;;;20.24;43.90;101438.00;5007135;28;45245;-55
2022/07/27 07:52:43;;;;;;;;;6.75;6.25;;;;;20.29;44.02;101433.31;5013294;28;45178;-54
2022/07/27 07:55:09;;;;;;;;;10.50;7.25;;;;;20.35;43.56;101440.16;4999598;28;45985;-54
2022/07/27 07:57:35;;;;;;;;;6.25;5.75;;;;;20.40;43.81;101436.38;4999586;28;45258;-55
2022/07/27 08:00:01;;;;;;;;;6.75;6.75;;;;;20.46;43.52;101444.13;4999860;28;45257;-54
2022/07/27 08:02:26;;;;;;;;;6.25;6.25;;;;;20.52;43.50;101428.75;5006827;28;45352;-53
2022/07/27 08:04:51;;;;;;;;;9.75;6.25;;;;;20.58;43.92;101428.47;4999361;28;46160;-54
2022/07/27 08:07:17;;;;;;;;;5.25;5.00;;;;;20.64;43.99;101428.19;4999164;28;47903;-54
2022/07/27 08:09:43;;;;;;;;;5.00;5.00;;;;;20.69;44.09;101422.63;4999751;28;45442;-51
2022/07/27 08:12:08;;;;;;;;;10.00;6.75;;;;;20.75;44.15;101419.72;4999562;28;45380;-54
2022/07/27 08:14:34;;;;;;;;;8.00;6.25;;;;;20.79;43.91;101415.94;4999437;28;45402;-54
2022/07/27 08:16:59;;;;;;;;;7.00;7.00;;;;;20.85;44.02;101426.34;4999281;28;45342;-54
2022/07/27 08:19:24;;;;;;;;;6.75;6.75;;;;;20.92;43.42;101425.13;4998866;28;45337;-56
2022/07/27 08:21:50;;;;;;;;;6.00;6.00;;;;;21.00;44.04;101426.59;4999386;28;45327;-56
2022/07/27 08:24:15;;;;;;;;;5.75;4.75;;;;;21.04;44.00;101431.72;4999497;28;46023;-53
2022/07/27 08:26:41;;;;;;;;;7.25;6.00;;;;;21.11;43.59;101421.59;4999664;28;45225;-55
2022/07/27 08:29:06;;;;;;;;;11.00;9.00;;;;;21.19;43.96;101422.06;4999613;28;45908;-53
2022/07/27 08:31:31;;;;;;;;;9.25;7.00;;;;;21.25;43.56;101415.59;4999360;28;45251;-53
2022/07/27 08:33:57;;;;;;;;;9.00;7.00;;;;;21.34;43.46;101416.94;4998029;28;46854;-56
2022/07/27 08:36:22;;;;;;;;;10.00;7.25;;;;;21.40;43.38;101417.50;4999234;28;45391;-53
2022/07/27 08:38:47;;;;;;;;;9.00;7.00;;;;;21.48;43.28;101413.59;4999330;28;45317;-53
2022/07/27 08:41:15;;;;;;;;;9.00;5.75;;;;;21.55;43.87;101410.56;4999190;28;45175;-52
2022/07/27 08:43:42;;;;;;;;;10.00;8.50;;;;;21.64;43.40;101417.25;4999222;28;47322;-53
2022/07/27 08:46:09;;;;;;;;;9.50;7.50;;;;;21.71;43.44;101416.03;4998850;28;45297;-54
2022/07/27 08:48:37;;;;;;;;;16.00;8.75;;;;;21.81;43.69;101412.88;4999388;28;45334;-53
2022/07/27 08:51:03;;;;;;;;;8.50;8.00;;;;;21.89;43.29;101418.69;5014176;28;45264;-59
2022/07/27 08:53:33;;;;;;;;;9.50;7.00;;;;;21.99;42.82;101416.44;5010519;28;45222;-54
2022/07/27 08:55:59;;;;;;;;;8.00;7.00;;;;;22.06;42.88;101409.78;5002413;28;45309;-53
2022/07/27 08:58:25;;;;;;;;;9.00;6.75;;;;;22.05;43.08;101403.59;5002629;28;45515;-53
2022/07/27 09:00:50;;;;;;;;;8.75;8.75;;;;;22.24;42.70;101421.38;5002216;28;45418;-56
2022/07/27 09:03:18;;;;;;;;;7.75;6.50;;;;;22.33;42.88;101423.53;5009990;28;45275;-54
2022/07/27 09:05:46;;;;;;;;;8.00;7.00;;;;;22.39;42.93;101417.91;5002255;28;45240;-54
2022/07/27 09:08:13;;;;;;;;;8.75;8.00;;;;;22.47;42.81;101414.81;5002303;28;46532;-55
2022/07/27 09:10:40;;;;;;;;;7.25;6.25;;;;;22.55;42.61;101423.31;5002263;28;45370;-55
2022/07/27 09:13:25;;;;;;;;;7.25;6.25;;;;;22.62;42.57;101421.16;5002051;28;45293;-55
2022/07/27 09:15:56;;;;;;;;;5.50;5.50;;;;;22.71;42.58;101417.94;5002014;28;45355;-54
2022/07/27 09:18:24;;;;;;;;;18.75;15.50;;;;;22.78;42.47;101425.66;5002164;28;45297;-55
2022/07/27 09:21:09;;;;;;;;;6.25;6.00;;;;;22.85;42.04;101421.69;5001945;28;45425;-59
2022/07/27 09:23:35;;;;;;;;;9.00;8.00;;;;;22.89;42.58;101416.09;5001619;28;47262;-57
2022/07/27 09:26:18;;;;;;;;;8.50;7.75;;;;;22.99;41.94;101424.50;5001913;28;45265;-58
2022/07/27 09:28:44;;;;;;;;;8.50;7.50;;;;;23.04;42.13;101419.72;5002201;28;45265;-58
2022/07/27 09:31:12;;;;;;;;;9.50;8.00;;;;;23.12;42.03;101421.97;5001657;28;45370;-58
2022/07/27 09:33:46;;;;;;;;;8.75;6.00;;;;;23.19;41.82;101423.41;5001689;28;46994;-58
2022/07/27 09:36:12;;;;;;;;;6.75;6.50;;;;;23.24;41.45;101420.44;5000086;28;45742;-58
2022/07/27 09:38:49;;;;;;;;;9.50;6.75;;;;;23.30;41.86;101414.72;4999948;28;45427;-58
2022/07/27 09:41:14;;;;;;;;;8.00;7.25;;;;;23.34;41.79;101418.94;5001763;28;45266;-58
2022/07/27 09:43:54;;;;;;;;;7.75;7.75;;;;;23.37;41.57;101416.09;5001096;28;45456;-58
2022/07/27 09:46:37;;;;;;;;;7.00;6.00;;;;;23.44;41.67;101421.97;5000908;28;45429;-59
2022/07/27 09:49:04;;;;;;;;;5.00;5.00;;;;;23.45;41.26;101412.13;5001848;28;45336;-58
2022/07/27 09:51:30;;;;;;;;;5.50;5.00;;;;;23.55;41.31;101416.00;5018072;28;45419;-58
2022/07/27 09:53:57;;;;;;;;;6.75;5.00;;;;;23.60;41.53;101418.41;5021007;28;45713;-58
2022/07/27 09:56:30;;;;;;;;;4.00;4.00;;;;;23.66;41.34;101412.66;5001574;28;45182;-62
2022/07/27 09:58:58;;;;;;;;;6.00;5.00;;;;;23.74;41.11;101417.59;5000327;28;45320;-58
2022/07/27 10:01:31;;;;;;;;;5.00;5.00;;;;;23.76;41.03;101405.81;5005367;28;45173;-58
2022/07/27 10:03:59;;;;;;;;;6.00;6.00;;;;;23.83;40.72;101411.69;5002881;28;45612;-58
2022/07/27 10:06:25;;;;;;;;;6.75;6.00;;;;;23.85;40.64;101410.63;5001288;28;45468;-57
2022/07/27 10:08:53;;;;;;;;;5.50;4.00;;;;;23.87;40.57;101407.84;5001399;28;45491;-58
2022/07/27 10:11:19;;;;;;;;;7.50;4.50;;;;;23.90;40.52;101405.00;5001190;28;45253;-58
2022/07/27 10:13:46;;;;;;;;;7.00;7.00;;;;;23.93;40.37;101410.19;5001056;28;46203;-58
2022/07/27 10:16:18;;;;;;;;;5.50;5.50;;;;;24.00;40.43;101399.97;5001359;28;45183;-58
2022/07/27 10:19:14;;;;;;;;;5.00;4.25;;;;;24.08;40.05;101394.13;5001357;28;45287;-58
2022/07/27 10:21:43;;;;;;;;;6.50;6.50;;;;;24.18;40.09;101396.16;5000815;28;45361;-58
2022/07/27 10:24:12;;;;;;;;;6.50;5.50;;;;;24.27;39.96;101394.72;4999814;28;46391;-58
2022/07/27 10:26:42;;;;;;;;;7.75;6.00;;;;;24.39;39.97;101397.59;5000909;28;45495;-58
2022/07/27 10:29:07;;;;;;;;;5.25;5.00;;;;;24.49;39.47;101391.56;5016351;28;45211;-58
2022/07/27 10:31:37;;;;;;;;;5.75;5.25;;;;;24.62;39.68;101394.34;5000811;28;45449;-58
2022/07/27 10:34:06;;;;;;;;;4.75;4.75;;;;;24.69;39.59;101394.84;5000976;28;45429;-58
2022/07/27 10:36:31;;;;;;;;;6.00;6.00;;;;;24.81;39.12;101387.81;5000624;28;45231;-58
2022/07/27 10:38:58;;;;;;;;;4.50;4.50;;;;;24.92;39.78;101396.06;5001029;28;45221;-58
2022/07/27 10:41:48;;;;;;;;;4.75;4.75;;;;;25.06;39.80;101389.78;5000885;28;45245;-58
2022/07/27 10:44:15;;;;;;;;;4.00;3.50;;;;;25.22;39.43;101389.66;5000324;28;45265;-58
2022/07/27 10:47:01;;;;;;;;;4.00;4.00;;;;;25.38;39.08;101389.50;5000702;28;45290;-58
2022/07/27 10:49:30;;;;;;;;;5.25;3.00;;;;;25.56;39.27;101375.78;5016143;28;45344;-58
2022/07/27 10:51:57;;;;;;;;;4.00;4.00;;;;;25.79;39.68;101385.00;5019764;28;45179;-58
2022/07/27 10:54:34;;;;;;;;;4.75;3.00;;;;;26.00;39.25;101377.25;5000045;28;46369;-57
2022/07/27 10:57:01;;;;;;;;;4.00;4.00;;;;;26.32;39.17;101382.25;5000490;28;45344;-57
2022/07/27 10:59:50;;;;;;;;;6.00;4.50;;;;;26.76;39.75;101380.03;5000712;28;45277;-58
2022/07/27 11:02:35;;;;;;;;;4.50;4.50;;;;;27.19;39.95;101376.84;4995906;28;45429;-57
2022/07/27 11:05:03;;;;;;;;;5.00;4.00;;;;;27.61;38.94;101370.19;5000305;28;45232;-57
2022/07/27 11:07:28;;;;;;;;;6.25;4.25;;;;;27.93;38.44;101374.97;5000305;28;45561;-57
2022/07/27 11:09:53;;;;;;;;;4.00;4.00;;;;;28.21;38.77;101363.75;5000531;28;45384;-57
2022/07/27 11:12:19;;;;;;;;;3.00;3.00;;;;;28.61;38.42;101359.66;5000381;28;45391;-57
2022/07/27 11:14:50;;;;;;;;;4.00;4.00;;;;;29.10;38.47;101360.19;4998780;28;45498;-57
2022/07/27 11:17:18;;;;;;;;;4.75;4.75;;;;;29.65;38.54;101357.41;5000308;28;45394;-57
2022/07/27 11:19:43;;;;;;;;;4.00;3.50;;;;;30.15;38.47;101354.03;5000406;28;45344;-57
2022/07/27 11:22:09;;;;;;;;;3.75;3.75;;;;;30.52;37.93;101358.03;5000059;28;45389;-57
2022/07/27 11:24:35;;;;;;;;;7.00;5.00;;;;;30.84;37.21;101356.97;5000071;28;46595;-57
2022/07/27 11:27:03;;;;;;;;;3.50;3.00;;;;;31.22;37.78;101358.06;5000294;28;45187;-57